Time;durP1;ratioP1;P1;durP2;ratioP2;P2;SDS_P1;SDS_P2;PMS_P1;PMS_P2;Temp;Humidity;BMP_temperature;BMP_pressure;BME280_temperature;BME280_humidity;BME280_pressure;Samples;Min_cycle;Max_cycle;Signal;HPM_P1;HPM_P2
2023/04/19 02:01:19;;;;;;;18.90;9.90;;;;;;;-145.18;100.00;46638.91;6141899;23;20306;-85
2023/04/19 02:03:45;;;;;;;14.17;9.37;;;;;;;-145.18;100.00;46629.13;6092888;23;20269;-68
2023/04/19 02:06:11;;;;;;;15.77;9.63;;;;;;;-145.18;100.00;46629.13;6064859;23;20718;-68
2023/04/19 02:08:40;;;;;;;16.77;10.33;;;;;;;-145.18;100.00;46635.00;6064612;23;20007;-68
2023/04/19 02:11:13;;;;;;;16.97;9.43;;;;;;;-145.18;100.00;46635.00;6065424;23;20656;-68
2023/04/19 02:13:38;;;;;;;16.00;9.30;;;;;;;-145.18;100.00;46635.00;6064318;23;20558;-68
2023/04/19 02:16:04;;;;;;;14.33;9.73;;;;;;;-145.18;100.00;46636.94;6064974;23;20238;-68
2023/04/19 02:18:30;;;;;;;14.80;8.67;;;;;;;-145.18;100.00;46638.91;6064862;23;20034;-68
2023/04/19 02:20:57;;;;;;;15.53;9.20;;;;;;;-145.18;100.00;46636.94;6064735;23;20237;-68
2023/04/19 02:23:22;;;;;;;14.93;9.23;;;;;;;-145.18;100.00;46640.88;6064746;23;20436;-68
2023/04/19 02:25:48;;;;;;;19.50;10.13;;;;;;;-145.18;100.00;46642.81;6064455;23;20264;-68
2023/04/19 02:28:13;;;;;;;14.70;9.17;;;;;;;-145.18;100.00;46652.59;6063363;23;20552;-68
2023/04/19 02:30:39;;;;;;;15.80;10.10;;;;;;;-145.18;100.00;46660.41;6064975;23;20014;-68
2023/04/19 02:33:04;;;;;;;18.70;10.37;;;;;;;-145.18;100.00;46660.41;6064780;23;20014;-68
2023/04/19 02:35:29;;;;;;;15.47;9.83;;;;;;;-145.18;100.00;46660.41;6064949;23;20087;-68
2023/04/19 02:37:55;;;;;;;17.23;9.83;;;;;;;-145.18;100.00;46642.81;6064605;23;20066;-68
2023/04/19 02:40:21;;;;;;;16.47;10.30;;;;;;;-145.18;100.00;46660.41;6064993;23;20494;-68
2023/04/19 02:42:47;;;;;;;15.60;9.70;;;;;;;-145.18;100.00;46679.94;6064756;23;20129;-68
2023/04/19 02:45:12;;;;;;;14.53;9.63;;;;;;;-145.18;100.00;46679.94;6064845;23;20249;-68
2023/04/19 02:47:38;;;;;;;15.27;9.23;;;;;;;-145.18;100.00;46644.78;6064389;23;20149;-68
2023/04/19 02:50:04;;;;;;;19.47;9.87;;;;;;;-145.18;100.00;46642.81;6064777;23;20500;-68
2023/04/19 02:52:29;;;;;;;17.03;10.03;;;;;;;-145.18;100.00;46644.78;6064274;23;20095;-68
2023/04/19 02:54:54;;;;;;;16.93;10.47;;;;;;;-145.18;100.00;46644.78;6064829;23;20258;-68
2023/04/19 02:57:20;;;;;;;18.07;9.73;;;;;;;-145.18;100.00;46677.97;6064581;23;20007;-68
2023/04/19 02:59:45;;;;;;;16.23;9.73;;;;;;;-145.18;100.00;46660.41;6064655;23;20436;-68
2023/04/19 03:02:10;;;;;;;15.93;9.43;;;;;;;-145.18;100.00;46660.41;6068840;23;20018;-68
2023/04/19 03:04:36;;;;;;;19.37;9.53;;;;;;;-145.18;100.00;46644.78;6095353;23;20030;-68
2023/04/19 03:07:01;;;;;;;18.10;10.90;;;;;;;-145.18;100.00;46648.69;6095140;23;20022;-68
2023/04/19 03:09:27;;;;;;;13.93;9.23;;;;;;;-145.18;100.00;46644.78;6095765;23;20019;-68
2023/04/19 03:11:52;;;;;;;19.87;10.27;;;;;;;-145.18;100.00;46646.72;6095267;23;20010;-68
2023/04/19 03:14:17;;;;;;;14.47;9.80;;;;;;;-145.18;100.00;46656.50;6095541;23;20015;-68
2023/04/19 03:16:43;;;;;;;19.53;9.90;;;;;;;-145.18;100.00;46668.22;6094078;23;20543;-68
2023/04/19 03:19:09;;;;;;;17.27;9.97;;;;;;;-145.18;100.00;46681.88;6094756;23;20045;-68
2023/04/19 03:21:35;;;;;;;15.27;10.17;;;;;;;-145.18;100.00;46681.88;6095235;23;20062;-68
2023/04/19 03:24:00;;;;;;;15.80;9.70;;;;;;;-145.18;100.00;46693.59;6095063;23;20229;-68
2023/04/19 03:26:26;;;;;;;18.10;9.47;;;;;;;-145.18;100.00;46687.75;6095769;23;20077;-68
2023/04/19 03:28:51;;;;;;;16.57;9.87;;;;;;;-145.18;100.00;46691.66;6094751;23;20689;-68
2023/04/19 03:31:17;;;;;;;16.27;9.90;;;;;;;-145.18;100.00;46685.78;6095485;23;20093;-68
2023/04/19 03:33:42;;;;;;;17.03;10.40;;;;;;;-145.18;100.00;46695.56;6094665;23;20014;-68
2023/04/19 03:36:08;;;;;;;17.67;10.77;;;;;;;-145.18;100.00;46693.59;6094151;23;20356;-68
2023/04/19 03:38:33;;;;;;;18.83;9.30;;;;;;;-145.18;100.00;46691.66;6094762;23;20010;-68
2023/04/19 03:40:58;;;;;;;15.10;8.83;;;;;;;-145.18;100.00;46695.56;6095519;23;20003;-68
2023/04/19 03:43:24;;;;;;;15.10;8.67;;;;;;;-145.18;100.00;46695.56;6094712;23;20006;-68
2023/04/19 03:45:49;;;;;;;16.67;9.40;;;;;;;-145.18;100.00;46689.69;6094923;23;20343;-68
2023/04/19 03:48:15;;;;;;;14.63;8.53;;;;;;;-145.18;100.00;46695.56;6095134;23;20014;-68
2023/04/19 03:50:40;;;;;;;15.80;10.13;;;;;;;-145.18;100.00;46695.56;6094881;23;20034;-68
2023/04/19 03:53:06;;;;;;;16.83;9.13;;;;;;;-145.18;100.00;46699.47;6094744;23;20100;-68
2023/04/19 03:55:31;;;;;;;14.03;8.83;;;;;;;-145.18;100.00;46709.22;6095306;23;20026;-68
2023/04/19 03:57:56;;;;;;;16.60;9.67;;;;;;;-145.18;100.00;46709.22;6094832;23;20006;-68
2023/04/19 04:00:22;;;;;;;15.07;8.83;;;;;;;-145.18;100.00;46709.22;6095222;23;20017;-68
2023/04/19 04:02:47;;;;;;;16.30;9.27;;;;;;;-145.18;100.00;46713.13;6092227;23;20113;-68
2023/04/19 04:05:13;;;;;;;16.23;9.17;;;;;;;-145.18;100.00;46709.22;6094312;23;20551;-68
2023/04/19 04:07:38;;;;;;;15.13;9.30;;;;;;;-145.18;100.00;46713.13;6093456;23;20014;-68
2023/04/19 04:10:04;;;;;;;16.10;9.17;;;;;;;-145.18;100.00;46707.28;6094938;23;20057;-68
2023/04/19 04:12:29;;;;;;;17.10;9.17;;;;;;;-145.18;100.00;46707.28;6094389;23;20010;-68
2023/04/19 04:14:54;;;;;;;12.27;8.53;;;;;;;-145.18;100.00;46693.59;6094277;23;20010;-68
2023/04/19 04:17:20;;;;;;;16.53;9.60;;;;;;;-145.18;100.00;46705.31;6094543;23;20022;-68
2023/04/19 04:19:45;;;;;;;13.93;9.17;;;;;;;-145.18;100.00;46693.59;6094251;23;20093;-68
2023/04/19 04:22:11;;;;;;;18.27;9.20;;;;;;;-145.18;100.00;46695.56;6094726;23;20085;-68
2023/04/19 04:24:40;;;;;;;15.77;8.50;;;;;;;-145.18;100.00;46705.31;6094440;23;20010;-68
2023/04/19 04:27:09;;;;;;;17.63;8.67;;;;;;;-145.18;100.00;46689.69;6095053;23;20097;-68
2023/04/19 04:29:36;;;;;;;16.73;8.70;;;;;;;-145.18;100.00;46691.66;6094434;23;20275;-68
2023/04/19 04:32:12;;;;;;;15.70;9.23;;;;;;;-145.18;100.00;46693.59;6095055;23;20245;-68
2023/04/19 04:34:38;;;;;;;18.33;8.70;;;;;;;-145.18;100.00;46695.56;6094498;23;20236;-68
2023/04/19 04:37:03;;;;;;;15.37;8.50;;;;;;;-145.18;100.00;46693.59;6093012;23;20241;-68
2023/04/19 04:39:29;;;;;;;16.00;8.97;;;;;;;-145.18;100.00;46693.59;6094524;23;20011;-68
2023/04/19 04:41:56;;;;;;;15.33;8.53;;;;;;;-145.18;100.00;46691.66;6094235;23;20042;-68
2023/04/19 04:44:22;;;;;;;13.77;8.30;;;;;;;-145.18;100.00;46687.75;6092924;23;20010;-68
2023/04/19 04:46:48;;;;;;;15.17;8.40;;;;;;;-145.18;100.00;46687.75;6094052;23;20249;-68
2023/04/19 04:49:13;;;;;;;15.43;8.17;;;;;;;-145.18;100.00;46687.75;6094275;23;20057;-68
2023/04/19 04:51:38;;;;;;;14.83;8.70;;;;;;;-145.18;100.00;46697.50;6093918;23;20428;-68
2023/04/19 04:54:04;;;;;;;15.93;9.40;;;;;;;-145.18;100.00;46697.50;6093058;23;20036;-68
2023/04/19 04:56:30;;;;;;;13.60;7.00;;;;;;;-145.18;100.00;46691.66;6093966;23;20017;-68
2023/04/19 04:58:56;;;;;;;12.97;7.57;;;;;;;-145.18;100.00;46687.75;6093801;23;20102;-68
2023/04/19 05:01:22;;;;;;;12.00;7.60;;;;;;;-145.18;100.00;46691.66;6092553;23;20014;-68
2023/04/19 05:03:48;;;;;;;13.90;8.33;;;;;;;-145.18;100.00;46687.75;6093264;23;20733;-68
2023/04/19 05:06:14;;;;;;;15.07;8.33;;;;;;;-145.18;100.00;46683.84;6094456;23;20265;-68
2023/04/19 05:08:40;;;;;;;16.87;8.80;;;;;;;-145.18;100.00;46685.78;6093813;23;20081;-68
2023/04/19 05:11:06;;;;;;;15.77;8.13;;;;;;;-145.18;100.00;46676.03;6093835;23;20237;-68
2023/04/19 05:13:31;;;;;;;12.93;7.90;;;;;;;-145.18;100.00;46677.97;6093492;23;20010;-68
2023/04/19 05:15:56;;;;;;;13.80;7.60;;;;;;;-145.18;100.00;46666.25;6093814;23;20014;-68
2023/04/19 05:18:21;;;;;;;13.03;7.67;;;;;;;-145.18;100.00;46662.34;6093979;23;20014;-68
2023/04/19 05:20:47;;;;;;;14.90;7.53;;;;;;;-145.18;100.00;46642.81;6093728;23;20458;-68
2023/04/19 05:23:12;;;;;;;10.63;7.20;;;;;;;-145.18;100.00;46638.91;6094043;23;20057;-68
2023/04/19 05:25:38;;;;;;;12.90;7.07;;;;;;;-145.18;100.00;46633.06;6092757;23;20018;-68
2023/04/19 05:28:03;;;;;;;13.00;7.17;;;;;;;-145.18;100.00;46660.41;6094022;23;20018;-68
2023/04/19 05:30:29;;;;;;;13.13;7.30;;;;;;;-145.18;100.00;46660.41;6094359;23;20030;-68
2023/04/19 05:32:55;;;;;;;14.53;8.40;;;;;;;-145.18;100.00;46650.63;6093551;23;20029;-68
2023/04/19 05:35:20;;;;;;;12.07;6.67;;;;;;;-145.18;100.00;46650.63;6093759;23;20010;-68
2023/04/19 05:37:46;;;;;;;17.40;7.33;;;;;;;-145.18;100.00;46650.63;6092205;23;20455;-68
2023/04/19 05:40:12;;;;;;;14.00;7.30;;;;;;;-145.18;100.00;46638.91;6091903;23;20352;-68
2023/04/19 05:42:38;;;;;;;11.10;6.93;;;;;;;-145.18;100.00;46631.09;6092194;23;20448;-68
2023/04/19 05:45:05;;;;;;;13.60;7.20;;;;;;;-145.18;100.00;46633.06;6094140;23;20259;-68
2023/04/19 05:47:30;;;;;;;13.27;6.77;;;;;;;-145.18;100.00;46584.22;6093491;23;20010;-68
2023/04/19 05:49:55;;;;;;;10.83;7.07;;;;;;;-145.18;100.00;46576.41;6093939;23;20312;-68
2023/04/19 05:52:21;;;;;;;10.97;6.73;;;;;;;-145.18;100.00;46574.44;6093982;23;20022;-68
2023/04/19 05:54:46;;;;;;;11.07;6.87;;;;;;;-145.18;100.00;46576.41;6093793;23;20021;-68
2023/04/19 05:57:12;;;;;;;12.27;6.23;;;;;;;-145.18;100.00;46576.41;6094117;23;20321;-68
2023/04/19 05:59:37;;;;;;;11.60;6.87;;;;;;;-145.18;100.00;46574.44;6093432;23;20014;-68
2023/04/19 06:02:03;;;;;;;11.47;7.43;;;;;;;-145.18;100.00;46580.31;6094043;23;20006;-68
2023/04/19 06:04:29;;;;;;;11.40;6.90;;;;;;;-145.18;100.00;46584.22;6093556;23;20015;-68
2023/04/19 06:06:54;;;;;;;10.40;6.30;;;;;;;-145.18;100.00;46588.13;6093635;23;20253;-68
2023/04/19 06:09:19;;;;;;;13.93;6.53;;;;;;;-145.18;100.00;46592.03;6093543;23;20061;-68
2023/04/19 06:11:45;;;;;;;12.63;6.40;;;;;;;-145.18;100.00;46593.97;6093736;23;20007;-68
2023/04/19 06:14:12;;;;;;;10.50;5.90;;;;;;;-145.18;100.00;46607.66;6093483;23;20006;-68
2023/04/19 06:16:38;;;;;;;10.90;6.03;;;;;;;-145.18;100.00;46603.75;6093706;23;20021;-68
2023/04/19 06:19:04;;;;;;;10.23;5.80;;;;;;;-145.18;100.00;46615.47;6093654;23;20221;-68
2023/04/19 06:21:30;;;;;;;12.53;5.97;;;;;;;-145.18;100.00;46615.47;6093767;23;20295;-68
2023/04/19 06:23:56;;;;;;;12.57;6.03;;;;;;;-145.18;100.00;46613.50;6092373;23;20084;-68
2023/04/19 06:26:21;;;;;;;10.33;6.67;;;;;;;-145.18;100.00;46625.22;6093039;23;20742;-68
2023/04/19 06:28:46;;;;;;;10.40;6.20;;;;;;;-145.18;100.00;46623.28;6093140;23;20021;-68
2023/04/19 06:31:12;;;;;;;13.67;6.30;;;;;;;-145.18;100.00;46636.94;6093920;23;20038;-68
2023/04/19 06:33:37;;;;;;;8.40;5.43;;;;;;;-145.18;100.00;46638.91;6091572;23;20021;-68
2023/04/19 06:36:03;;;;;;;10.03;5.70;;;;;;;-145.18;100.00;46636.94;6093901;23;20006;-68
2023/04/19 06:38:28;;;;;;;10.70;5.47;;;;;;;-145.18;100.00;46644.78;6092994;23;20007;-68
2023/04/19 06:40:54;;;;;;;8.20;5.60;;;;;;;-145.18;100.00;46642.81;6093503;23;20066;-68
2023/04/19 06:43:20;;;;;;;8.20;5.23;;;;;;;-145.18;100.00;46656.50;6090032;23;20018;-68
2023/04/19 06:45:45;;;;;;;9.17;5.73;;;;;;;-145.18;100.00;46666.25;6092382;23;20018;-68
2023/04/19 06:48:11;;;;;;;13.50;5.63;;;;;;;-145.18;100.00;46676.03;6093384;23;20247;-68
2023/04/19 06:50:36;;;;;;;9.93;5.87;;;;;;;-145.18;100.00;46691.66;6091566;23;20006;-68
2023/04/19 06:53:02;;;;;;;10.70;5.83;;;;;;;-145.18;100.00;46711.19;6093447;23;20033;-68
2023/04/19 06:55:27;;;;;;;9.47;5.50;;;;;;;-145.18;100.00;46713.13;6093647;23;20014;-68
2023/04/19 06:57:52;;;;;;;8.50;5.47;;;;;;;-145.18;100.00;46697.50;6092369;23;20089;-68
2023/04/19 07:00:18;;;;;;;9.90;5.33;;;;;;;-145.18;100.00;46742.44;6093537;23;20010;-68
2023/04/19 07:02:43;;;;;;;9.40;5.80;;;;;;;-145.18;100.00;46740.47;6092894;23;20014;-68
2023/04/19 07:05:09;;;;;;;9.03;5.53;;;;;;;-145.18;100.00;46756.09;6093200;23;20023;-68
2023/04/19 07:07:36;;;;;;;12.77;5.53;;;;;;;-145.18;100.00;46795.19;6093866;23;20081;-68
2023/04/19 07:10:02;;;;;;;10.60;6.00;;;;;;;-145.18;100.00;46789.31;6093288;23;20026;-68
2023/04/19 07:12:27;;;;;;;11.47;6.10;;;;;;;-145.18;100.00;46775.66;6093511;23;20575;-68
2023/04/19 07:14:55;;;;;;;10.53;5.20;;;;;;;-145.18;100.00;46804.94;6093115;23;20384;-68
2023/04/19 07:17:22;;;;;;;9.63;5.30;;;;;;;-145.18;100.00;46785.41;6093751;23;20006;-68
2023/04/19 07:19:50;;;;;;;12.03;5.70;;;;;;;-145.18;100.00;46844.00;6090607;23;20238;-68
2023/04/19 07:22:15;;;;;;;11.67;5.43;;;;;;;-145.18;100.00;46881.13;6093617;23;20252;-68
2023/04/19 07:24:43;;;;;;;8.93;5.47;;;;;;;-145.18;100.00;46879.19;6093138;23;20695;-68
2023/04/19 07:27:08;;;;;;;10.50;5.63;;;;;;;-145.18;100.00;47008.09;6093145;23;20019;-68
2023/04/19 07:29:34;;;;;;;8.10;5.00;;;;;;;-145.18;100.00;47023.72;6093270;23;20352;-68
2023/04/19 07:32:00;;;;;;;9.57;5.37;;;;;;;-145.18;100.00;47432.03;6093454;23;20007;-68
2023/04/19 07:34:26;;;;;;;12.50;6.03;;;;;;;-145.18;100.00;47529.72;6091648;23;20094;-68
2023/04/19 07:36:51;;;;;;;8.97;5.30;;;;;;;-145.18;100.00;47543.41;6092997;23;20263;-68
2023/04/19 07:39:17;;;;;;;8.83;5.63;;;;;;;-145.18;100.00;47543.41;6093068;23;20702;-68
2023/04/19 07:41:43;;;;;;;8.57;5.13;;;;;;;-145.18;100.00;47531.69;6093146;23;20038;-68
2023/04/19 07:44:10;;;;;;;8.37;5.33;;;;;;;-145.18;100.00;47504.31;6092650;23;20033;-68
2023/04/19 07:46:35;;;;;;;8.33;5.20;;;;;;;-145.18;100.00;47488.69;6093054;23;20006;-68
2023/04/19 07:49:01;;;;;;;9.40;4.73;;;;;;;-145.18;100.00;47451.56;6093853;23;20006;-68
2023/04/19 07:51:26;;;;;;;8.37;4.83;;;;;;;-145.18;100.00;47453.53;6093692;23;20352;-68
2023/04/19 07:53:52;;;;;;;7.67;5.10;;;;;;;-145.18;100.00;47424.22;6094648;23;20034;-68
2023/04/19 07:56:19;;;;;;;8.37;4.63;;;;;;;-145.18;100.00;47434.00;6095116;23;20027;-68
2023/04/19 07:58:44;;;;;;;9.50;4.70;;;;;;;-145.18;100.00;47426.19;6094613;23;20012;-68
2023/04/19 08:01:10;;;;;;;6.77;4.30;;;;;;;-145.18;100.00;47422.28;6094887;23;20093;-68
2023/04/19 08:03:36;;;;;;;7.33;5.20;;;;;;;-145.18;100.00;47418.38;6094681;23;20057;-68
2023/04/19 08:06:04;;;;;;;8.97;5.20;;;;;;;-145.18;100.00;47404.69;6095201;23;20022;-68
2023/04/19 08:08:30;;;;;;;10.00;4.40;;;;;;;-145.18;100.00;47416.41;6094625;23;20034;-68
2023/04/19 08:10:55;;;;;;;7.70;4.87;;;;;;;-145.18;100.00;47398.81;6094641;23;20014;-68
2023/04/19 08:13:21;;;;;;;11.57;4.53;;;;;;;-145.18;100.00;47410.56;6094703;23;20400;-68
2023/04/19 08:15:47;;;;;;;7.73;4.23;;;;;;;-145.18;100.00;47404.69;6094815;23;20018;-68
2023/04/19 08:18:12;;;;;;;7.53;4.57;;;;;;;-145.18;100.00;47400.78;6093396;23;20014;-68
2023/04/19 08:20:38;;;;;;;9.87;4.63;;;;;;;-145.18;100.00;47379.28;6094664;23;20010;-68
2023/04/19 08:23:05;;;;;;;10.97;4.43;;;;;;;-145.18;100.00;47391.00;6094669;23;20447;-68
2023/04/19 08:25:30;;;;;;;5.60;3.67;;;;;;;-145.18;100.00;47379.28;6094872;23;20425;-68
2023/04/19 08:27:57;;;;;;;5.97;4.10;;;;;;;-145.18;100.00;47373.44;6094394;23;20061;-68
2023/04/19 08:30:23;;;;;;;7.00;3.40;;;;;;;-145.18;100.00;47379.28;6094993;23;20009;-68
2023/04/19 08:32:48;;;;;;;6.83;3.57;;;;;;;-145.18;100.00;47383.19;6094469;23;20050;-68
2023/04/19 08:35:14;;;;;;;8.93;3.70;;;;;;;-145.18;100.00;47381.25;6094702;23;20010;-68
2023/04/19 08:37:39;;;;;;;8.73;3.47;;;;;;;-145.18;100.00;47383.19;6094569;23;20006;-68
2023/04/19 08:40:05;;;;;;;7.30;3.10;;;;;;;-145.18;100.00;47369.53;6094542;23;20010;-68
2023/04/19 08:42:32;;;;;;;5.13;3.37;;;;;;;-145.18;100.00;47387.09;6094974;23;20012;-68
2023/04/19 08:45:01;;;;;;;6.17;3.00;;;;;;;-145.18;100.00;47383.19;6093896;23;20046;-68
2023/04/19 08:47:27;;;;;;;9.47;3.30;;;;;;;-145.18;100.00;47361.72;6094534;23;20010;-68
2023/04/19 08:49:55;;;;;;;4.63;2.97;;;;;;;-145.18;100.00;47365.63;6094374;23;20077;-68
2023/04/19 08:52:22;;;;;;;5.93;3.10;;;;;;;-145.18;100.00;47379.28;6094839;23;20075;-68
2023/04/19 08:54:49;;;;;;;4.60;2.63;;;;;;;-145.18;100.00;47355.84;6093839;23;20010;-68
2023/04/19 08:57:15;;;;;;;5.87;3.23;;;;;;;-145.18;100.00;47355.84;6094461;23;20014;-68
2023/04/19 08:59:40;;;;;;;7.80;3.23;;;;;;;-145.18;100.00;47367.56;6094122;23;20454;-68
2023/04/19 09:02:06;;;;;;;7.30;3.10;;;;;;;-145.18;100.00;47344.13;6094422;23;20377;-68
2023/04/19 09:04:31;;;;;;;6.20;2.40;;;;;;;-145.18;100.00;47361.72;6093938;23;20015;-68
2023/04/19 09:06:56;;;;;;;7.03;3.50;;;;;;;-145.18;100.00;47344.13;6092825;23;20098;-68
2023/04/19 09:09:28;;;;;;;10.43;2.90;;;;;;;-145.18;100.00;47373.44;6093976;23;20002;-68
2023/04/19 09:11:53;;;;;;;6.30;2.70;;;;;;;-145.18;100.00;47359.75;6094247;23;20010;-68
2023/04/19 09:14:21;;;;;;;7.30;2.57;;;;;;;-145.18;100.00;47349.97;6094306;23;20384;-68
2023/04/19 09:16:47;;;;;;;5.67;2.57;;;;;;;-145.18;100.00;47334.34;6094308;23;20012;-68
2023/04/19 09:19:12;;;;;;;5.77;2.90;;;;;;;-145.18;100.00;47342.16;6093444;23;20087;-68
2023/04/19 09:21:38;;;;;;;3.57;2.20;;;;;;;-145.18;100.00;47346.06;6093989;23;20038;-68
2023/04/19 09:24:04;;;;;;;7.70;2.60;;;;;;;-145.18;100.00;47340.22;6094005;23;20405;-68
2023/04/19 09:26:31;;;;;;;5.97;3.10;;;;;;;-145.18;100.00;47334.34;6094053;23;20014;-69
2023/04/19 09:29:03;;;;;;;5.70;3.43;;;;;;;-145.18;100.00;47324.59;6093630;23;20038;-69
2023/04/19 09:31:30;;;;;;;4.67;2.80;;;;;;;-145.18;100.00;47318.72;6094537;23;20368;-68
2023/04/19 09:33:55;;;;;;;6.97;3.03;;;;;;;-145.18;100.00;47340.22;6093577;23;20011;-68
2023/04/19 09:36:32;;;;;;;5.73;2.60;;;;;;;-145.18;100.00;47340.22;6093935;23;20025;-69
2023/04/19 09:38:58;;;;;;;5.53;2.80;;;;;;;-145.18;100.00;47328.50;6092083;23;20359;-68
2023/04/19 09:41:25;;;;;;;7.90;2.80;;;;;;;-145.18;100.00;47312.88;6093658;23;20006;-68
2023/04/19 09:43:51;;;;;;;5.57;2.70;;;;;;;-145.18;100.00;47336.31;6093626;23;20010;-69
2023/04/19 09:46:34;;;;;;;5.93;2.83;;;;;;;-145.18;100.00;47326.53;6093839;23;20006;-68
2023/04/19 09:49:20;;;;;;;5.83;2.83;;;;;;;-145.18;100.00;47322.63;6093052;23;20014;-69
2023/04/19 09:51:45;;;;;;;5.05;2.47;;;;;;;-145.18;100.00;47326.53;6093662;23;20376;-69
2023/04/19 09:54:12;;;;;;;4.83;2.50;;;;;;;-145.18;100.00;47322.63;6093681;23;20041;-69
2023/04/19 09:56:38;;;;;;;5.90;2.53;;;;;;;-145.18;100.00;47318.72;6092883;23;20003;-69
2023/04/19 09:59:07;;;;;;;4.10;2.60;;;;;;;-145.18;100.00;47307.00;6093934;23;20002;-68
2023/04/19 10:01:37;;;;;;;3.73;2.27;;;;;;;-145.18;100.00;47291.38;6093806;23;20006;-68
2023/04/19 10:04:06;;;;;;;4.17;2.30;;;;;;;-145.18;100.00;47314.81;6093347;23;20134;-69
2023/04/19 10:06:34;;;;;;;5.07;1.87;;;;;;;-145.18;100.00;47334.34;6093675;23;20015;-68
2023/04/19 10:09:04;;;;;;;5.23;2.13;;;;;;;-145.18;100.00;47330.44;6093450;23;20014;-68
2023/04/19 10:11:37;;;;;;;3.33;1.90;;;;;;;-145.18;100.00;47301.16;6093408;23;20022;-69
2023/04/19 10:14:08;;;;;;;3.20;1.70;;;;;;;-145.18;100.00;47326.53;6093021;23;20837;-69
2023/04/19 10:16:35;;;;;;;3.03;1.60;;;;;;;-145.18;100.00;47326.53;6093675;23;20064;-69
2023/04/19 10:19:07;;;;;;;4.20;1.60;;;;;;;-145.18;96.27;47312.88;6093289;23;19998;-69
2023/04/19 10:21:34;;;;;;;2.90;1.20;;;;;;;-145.18;100.00;47307.00;6093790;23;20066;-68
2023/04/19 10:24:00;;;;;;;2.47;1.27;;;;;;;-145.18;100.00;47305.06;6092956;23;20006;-68
2023/04/19 10:26:26;;;;;;;1.60;1.30;;;;;;;-145.18;99.76;47301.16;6093912;23;20018;-68
2023/04/19 10:28:54;;;;;;;3.10;0.70;;;;;;;-145.18;90.25;47314.81;6093102;23;20772;-68
2023/04/19 10:31:22;;;;;;;3.20;1.37;;;;;;;-145.18;99.02;47293.31;6093419;23;20011;-68
2023/04/19 10:33:48;;;;;;;1.57;1.20;;;;;;;-145.18;100.00;47307.00;6091334;23;20010;-69
2023/04/19 10:36:16;;;;;;;1.90;1.10;;;;;;;-145.18;96.26;47308.97;6091803;23;20017;-68
2023/04/19 10:38:48;;;;;;;3.53;1.27;;;;;;;-145.18;100.00;47283.56;6093254;23;20007;-68
2023/04/19 10:41:15;;;;;;;2.27;1.20;;;;;;;-145.18;100.00;47289.41;6093650;23;20034;-68
2023/04/19 10:44:06;;;;;;;4.50;1.10;;;;;;;-145.18;100.00;47301.16;6093165;23;20511;-68
2023/04/19 10:46:32;;;;;;;2.50;1.50;;;;;;;-145.18;97.73;47301.16;6080844;23;20010;-69
2023/04/19 10:48:59;;;;;;;1.43;1.03;;;;;;;-145.18;100.00;47297.22;6089575;23;20393;-68
2023/04/19 10:51:27;;;;;;;2.10;1.10;;;;;;;-145.18;100.00;47293.31;6093507;23;20077;-68
2023/04/19 10:53:55;;;;;;;2.07;1.27;;;;;;;-145.18;100.00;47269.88;6092568;23;20006;-68
2023/04/19 10:56:31;;;;;;;2.20;1.20;;;;;;;-145.18;100.00;47279.66;6093292;23;20380;-69
2023/04/19 10:58:59;;;;;;;2.92;1.45;;;;;;;-145.18;100.00;47289.41;6093000;23;20444;-69
2023/04/19 11:01:41;;;;;;;3.50;1.70;;;;;;;-145.18;100.00;47289.41;6091917;23;20666;-69
2023/04/19 11:04:13;;;;;;;3.30;1.17;;;;;;;-145.18;100.00;47271.84;6092631;23;20093;-68
2023/04/19 11:06:54;;;;;;;3.20;1.27;;;;;;;-145.18;100.00;47279.66;6091440;23;20332;-68
2023/04/19 11:09:30;;;;;;;5.03;1.70;;;;;;;-145.18;100.00;47275.75;6091574;23;20006;-68
2023/04/19 11:12:15;;;;;;;3.37;1.63;;;;;;;-145.18;100.00;47287.47;6092412;23;20003;-69
2023/04/19 11:14:56;;;;;;;2.30;1.53;;;;;;;-145.18;100.00;47277.69;6092149;23;20503;-69
2023/04/19 11:17:25;;;;;;;1.77;1.40;;;;;;;-145.18;100.00;47271.84;6090392;23;20267;-68
2023/04/19 11:20:09;;;;;;;2.33;1.50;;;;;;;-145.18;100.00;47252.31;6090843;23;20068;-68
2023/04/19 11:22:37;;;;;;;2.00;1.40;;;;;;;-145.18;100.00;47252.31;6089800;23;20501;-68
2023/04/19 11:25:20;;;;;;;3.20;1.80;;;;;;;-145.18;100.00;47250.34;6092277;23;20089;-69
2023/04/19 11:27:48;;;;;;;2.83;1.60;;;;;;;-145.18;100.00;47264.03;6093450;23;20593;-69
2023/04/19 11:30:21;;;;;;;3.90;1.73;;;;;;;-145.18;100.00;47252.31;6093468;23;20009;-69
2023/04/19 11:32:55;;;;;;;2.27;1.50;;;;;;;-145.18;100.00;47262.06;6093664;23;20006;-69
2023/04/19 11:35:21;;;;;;;6.93;2.00;;;;;;;-145.18;100.00;47262.06;6094549;23;20014;-68
2023/04/19 11:37:46;;;;;;;3.10;1.90;;;;;;;-145.18;100.00;47244.50;6094423;23;20011;-69
2023/04/19 11:40:17;;;;;;;4.37;2.50;;;;;;;-145.18;100.00;47256.22;6094538;23;20419;-69
2023/04/19 11:42:43;;;;;;;2.93;1.77;;;;;;;-145.18;100.00;47258.16;6094281;23;20081;-69
2023/04/19 11:45:09;;;;;;;3.87;2.10;;;;;;;-145.18;100.00;47252.31;6094116;23;20066;-68
2023/04/19 11:47:46;;;;;;;2.97;1.67;;;;;;;-145.18;96.31;47230.81;6094153;23;20007;-69
2023/04/19 11:50:39;;;;;;;4.20;2.00;;;;;;;-145.18;100.00;47236.66;6092803;23;20033;-69
2023/04/19 11:53:12;;;;;;;5.70;1.80;;;;;;;-145.18;100.00;47219.09;6094578;23;20057;-69
2023/04/19 11:55:37;;;;;;;2.60;1.80;;;;;;;-145.18;100.00;47256.22;6094040;23;20013;-69
2023/04/19 11:58:08;;;;;;;1.90;1.50;;;;;;;-145.18;100.00;47228.84;6094331;23;20010;-69
2023/04/19 12:00:34;;;;;;;1.90;1.33;;;;;;;-145.18;97.08;47232.75;6093798;23;20086;-69
2023/04/19 12:03:00;;;;;;;1.70;1.40;;;;;;;-145.18;93.54;47242.53;6093401;23;20081;-68
2023/04/19 12:05:25;;;;;;;3.23;1.67;;;;;;;-145.18;91.82;47230.81;6094575;23;20010;-68
2023/04/19 12:08:02;;;;;;;2.67;1.80;;;;;;;-145.18;83.08;47219.09;6093885;23;20436;-68
2023/04/19 12:10:29;;;;;;;2.90;1.67;;;;;;;-145.18;86.98;47199.56;6094312;23;20061;-68
2023/04/19 12:12:55;;;;;;;3.53;2.23;;;;;;;-145.18;85.19;47187.84;6094223;23;20424;-68
2023/04/19 12:15:20;;;;;;;5.03;1.40;;;;;;;-145.18;84.88;47176.09;6093793;23;20053;-69
2023/04/19 12:17:56;;;;;;;2.97;1.80;;;;;;;-145.18;78.64;47183.94;6093663;23;20016;-69
2023/04/19 12:20:48;;;;;;;4.00;1.63;;;;;;;-145.18;81.59;47148.75;6094344;23;20332;-69
2023/04/19 12:23:15;;;;;;;3.10;1.50;;;;;;;-145.18;81.15;47146.81;6091527;23;20409;-69
2023/04/19 12:25:41;;;;;;;4.90;2.47;;;;;;;-145.18;74.41;47166.34;6093327;23;20010;-68
2023/04/19 12:28:07;;;;;;;3.57;1.70;;;;;;;-145.18;81.62;47178.06;6094168;23;20007;-68
2023/04/19 12:30:35;;;;;;;2.63;1.83;;;;;;;-145.18;75.67;47226.91;6094009;23;20138;-69
2023/04/19 12:33:01;;;;;;;3.47;1.83;;;;;;;-145.18;77.65;47238.63;6093886;23;20013;-69
2023/04/19 12:35:27;;;;;;;5.10;1.70;;;;;;;-145.18;77.21;47207.38;6094053;23;20002;-69
2023/04/19 12:37:57;;;;;;;2.93;1.93;;;;;;;-145.18;71.89;47211.28;6093883;23;20006;-69
2023/04/19 12:40:23;;;;;;;2.57;1.93;;;;;;;-145.18;80.33;47221.03;6094244;23;20013;-69
2023/04/19 12:42:49;;;;;;;5.90;3.10;;;;;;;-145.18;78.72;47213.22;6093752;23;20348;-69
2023/04/19 12:45:14;;;;;;;2.83;2.10;;;;;;;-145.18;77.51;47211.28;6093835;23;20014;-68
2023/04/19 12:47:42;;;;;;;4.23;2.30;;;;;;;-145.18;80.02;47217.13;6093265;23;20437;-69
2023/04/19 12:50:08;;;;;;;5.77;2.30;;;;;;;-145.18;77.77;47213.22;6093785;23;20049;-68
2023/04/19 12:52:34;;;;;;;2.60;1.87;;;;;;;-145.18;77.16;47203.47;6092514;23;20081;-69
2023/04/19 12:55:00;;;;;;;4.13;2.20;;;;;;;-145.18;70.61;47209.31;6092864;23;20013;-69
2023/04/19 12:57:26;;;;;;;4.77;1.90;;;;;;;-145.18;60.89;47213.22;6093794;23;20010;-68
2023/04/19 12:59:51;;;;;;;3.53;1.93;;;;;;;-145.18;64.00;47201.50;6091808;23;20010;-69
2023/04/19 13:02:16;;;;;;;2.70;1.80;;;;;;;-145.18;62.50;47213.22;6093651;23;20508;-69
2023/04/19 13:04:42;;;;;;;2.23;2.00;;;;;;;-145.18;65.04;47236.66;6093404;23;20054;-68
2023/04/19 13:07:07;;;;;;;4.43;2.33;;;;;;;-145.18;68.20;47201.50;6093863;23;20002;-69